Aviation Forecast PDF Print E-mail

 
met_logo

NATIONAL METEOROLOGICAL SERVICE OF BELIZE

Area Forecast for the Country of Belize


For the period from:

1200 22 MAY 2017

to

2400 22 MAY 2017

All Heights in the forecast are above sea level. PS= Positive, MS= Minus. All times are UTC.


A.

SPECIAL FEATURES of the METEOROLOGICAL SITUATION

SLIGHTLY MOIST CONDITIONS PREVAIL; MODERATE TO STRONG LOW LEVEL WINDS WILL CONTINUE...

B.

HEIGHT (Ft)

WIND (True Degrees and Knots)

TEMPERATURE (°C)

Surface

10009

  

PS31-35

2,000

11025

PS22

5,000

12020

PS19

10,000

11015

PS11

C.

CLOUDS (Amount, Type, Ceiling and Top(optional))

 ISOL CB BASES 1500FT TOPS 30000FT

 SCT CU BASES 2200FT TOPS 8000FT

 

 


D.

SURFACE VISIBILITY:  20KM. 4-8KM IN  SHRA/TSRA. 500M IN HILL FOG. 


E.

WEATHER:  SUNNY WITH A FEW CLOUDY SPELLS. SHOWERS WILL BE ISOLATED AND BRIEF.
EARLY MORNING HILL FOG.


Remarks, Warnings, Turbulence

Barometric Changes

LOW CLOUD COVERING HILLS; MOD TURB NEAR SFC AND IN TCU/CB

RISING

G.

OUTLOOK:

TO 1200 23 MAY 2017

CLOUDY AT TIMES WITH ONLY ISOLATED SHOWERS.

H. 

TAF MZBZ

221040Z 2212/2312 10009KT 9999 SCT023 =

Meteorological Office:

BELIZE

Issued at:

1140 22 MAY 2017

Forecaster:

A. Guy